CZ-0043 weather

Střediskový Central Heliport
Jihlava, Vysočina Region, Czech Republic

Public forecast

Using degrees Celsius for public forecast. Weather courtesy of forecast.io.

Closest aviation weather report (METAR) to Střediskový Central Heliport

Closest report is Náměšť Air Base, 25.9 nm (48.0 km) ESE. Retrieved 2020/07/09 11:30 UTC (27 minutes ago):

LKNA 091130Z 19008KT 150V210 9999 SCT023 BKN030 21/15 Q1018 NOSIG

Closest aviation forecast (TAF) to Střediskový Central Heliport

Closest forecast is Náměšť Air Base, 25.9 nm (48.0 km) ESE. Retrieved 2020/07/09 06:00 UTC (6 hours ago):

TAF LKNA 090500Z 0906/1006 VRB02KT 5000 RA BKN013 OVC020 TEMPO 0906/0908 3000 RA BR BKN010 BECMG 0909/0911 9999 NSW BKN030 TEMPO 0912/0918 22010KT SCT035TCU BECMG 0916/0918 CAVOK